createdAt,value
2019-04-16T00:00:17.644Z,91.70
2019-04-16T00:02:51.269Z,91.90
2019-04-16T00:05:31.709Z,92.20
2019-04-16T00:08:09.905Z,92.30
2019-04-16T00:10:54.886Z,92.30
2019-04-16T00:13:27.504Z,92.40
2019-04-16T00:15:56.915Z,92.80
2019-04-16T00:18:25.476Z,92.70
2019-04-16T00:21:06.534Z,92.40
2019-04-16T00:23:39.389Z,92.50
2019-04-16T00:26:08.777Z,92.70
2019-04-16T00:28:37.348Z,93.00
2019-04-16T00:31:05.968Z,93.00
2019-04-16T00:33:34.527Z,92.40
2019-04-16T00:36:03.215Z,92.70
2019-04-16T00:38:40.405Z,93.00
2019-04-16T00:41:02.341Z,93.40
2019-04-16T00:45:59.270Z,93.50
2019-04-16T00:48:27.862Z,93.60
2019-04-16T00:50:56.435Z,93.60
2019-04-16T00:53:25.045Z,93.70
2019-04-16T00:55:53.549Z,93.90
2019-04-16T00:58:22.113Z,94.40
2019-04-16T01:00:50.639Z,94.70
2019-04-16T01:03:19.213Z,95.00
2019-04-16T01:05:47.808Z,95.40
2019-04-16T01:08:16.659Z,95.60
2019-04-16T01:10:45.262Z,95.10
2019-04-16T01:13:13.760Z,94.80
2019-04-16T01:15:42.433Z,95.10
2019-04-16T01:18:11.004Z,95.30
2019-04-16T01:20:40.444Z,95.30
2019-04-16T01:23:09.818Z,95.50
2019-04-16T01:25:39.102Z,95.20
2019-04-16T01:28:09.315Z,95.10
2019-04-16T01:30:39.530Z,95.10
2019-04-16T01:33:14.618Z,95.20
2019-04-16T01:35:44.078Z,95.60
2019-04-16T01:38:27.666Z,95.80
2019-04-16T01:40:57.337Z,96.10
2019-04-16T01:43:26.472Z,96.00
2019-04-16T01:45:55.113Z,96.20
2019-04-16T01:48:23.726Z,95.60
2019-04-16T01:50:52.593Z,95.70
2019-04-16T01:53:21.736Z,95.80
2019-04-16T01:55:50.366Z,96.00
2019-04-16T01:58:18.981Z,95.80
2019-04-16T02:00:47.481Z,95.60
2019-04-16T02:03:17.838Z,95.50
2019-04-16T02:05:46.435Z,95.50
2019-04-16T02:08:14.929Z,96.10
2019-04-16T02:10:43.525Z,96.20
2019-04-16T02:13:14.599Z,96.70
2019-04-16T02:15:42.415Z,97.00
2019-04-16T02:18:10.978Z,97.10
2019-04-16T02:20:39.684Z,97.20
2019-04-16T02:23:08.256Z,97.30
2019-04-16T02:25:36.858Z,97.50
2019-04-16T02:28:05.429Z,97.60
2019-04-16T02:30:39.438Z,97.80
2019-04-16T02:35:32.556Z,98.20
2019-04-16T02:38:01.233Z,98.50
2019-04-16T02:40:29.812Z,98.60
2019-04-16T02:43:03.924Z,98.80
2019-04-16T02:45:28.606Z,98.70
2019-04-16T02:47:57.211Z,98.80
2019-04-16T02:50:42.713Z,98.80
2019-04-16T02:53:13.015Z,98.40
2019-04-16T02:55:44.280Z,98.70
2019-04-16T02:58:14.687Z,98.20
2019-04-16T03:00:49.127Z,98.20
2019-04-16T03:03:16.909Z,98.50
2019-04-16T03:05:47.126Z,98.30
2019-04-16T03:08:15.870Z,98.60
2019-04-16T03:10:45.321Z,98.70
2019-04-16T03:13:14.488Z,98.60
2019-04-16T03:16:06.021Z,98.50
2019-04-16T03:18:41.174Z,98.40
2019-04-16T03:21:09.746Z,98.60
2019-04-16T03:23:38.431Z,98.50
2019-04-16T03:26:07.010Z,98.60
2019-04-16T03:28:35.562Z,98.90
2019-04-16T03:31:08.514Z,99.30
2019-04-16T03:33:34.377Z,99.30
2019-04-16T03:36:03.160Z,99.40
2019-04-16T03:38:36.697Z,99.10
2019-04-16T03:41:02.578Z,99.10
2019-04-16T03:43:32.822Z,99.20
2019-04-16T03:46:01.396Z,99.20
2019-04-16T03:48:30.290Z,99.30
2019-04-16T03:51:00.464Z,99.30
2019-04-16T03:53:29.106Z,99.30
2019-04-16T03:55:58.212Z,99.40
2019-04-16T03:58:27.764Z,99.60
2019-04-16T04:00:56.370Z,99.60
2019-04-16T04:03:26.068Z,99.60
2019-04-16T04:05:55.835Z,99.50
2019-04-16T04:08:25.938Z,99.60
2019-04-16T04:10:54.755Z,99.70
2019-04-16T04:13:23.516Z,99.80
2019-04-16T04:15:54.842Z,99.90
2019-04-16T04:20:50.990Z,99.90
2019-04-16T04:25:47.988Z,99.90
2019-04-16T04:28:19.714Z,99.90
2019-04-16T04:30:48.787Z,99.90
2019-04-16T04:33:40.923Z,99.90
2019-04-16T04:36:10.397Z,99.90
2019-04-16T04:38:39.902Z,99.50
2019-04-16T04:41:08.590Z,98.80
2019-04-16T04:43:37.312Z,98.60
2019-04-16T04:46:06.033Z,98.60
2019-04-16T04:51:06.821Z,97.30
2019-04-16T04:53:33.287Z,95.00
2019-04-16T04:56:01.888Z,95.20
2019-04-16T04:58:50.417Z,91.70
2019-04-16T05:01:19.037Z,90.10
2019-04-16T05:04:05.446Z,90.00
2019-04-16T05:06:36.679Z,87.30
2019-04-16T05:09:06.573Z,83.60
2019-04-16T05:11:35.217Z,79.10
2019-04-16T05:14:03.799Z,76.70
2019-04-16T05:16:34.331Z,68.20
2019-04-16T05:19:02.631Z,62.80
2019-04-16T05:21:31.234Z,57.20
2019-04-16T05:23:59.734Z,53.80
2019-04-16T05:26:28.406Z,51.50
2019-04-16T05:28:58.617Z,48.90
2019-04-16T05:31:27.143Z,47.10
2019-04-16T05:33:59.466Z,46.70
2019-04-16T05:36:25.971Z,43.30
2019-04-16T05:38:56.444Z,40.30
2019-04-16T05:41:25.535Z,39.00
2019-04-16T05:43:54.143Z,38.20
2019-04-16T05:46:22.762Z,39.70
2019-04-16T05:48:51.394Z,41.80
2019-04-16T05:51:21.561Z,42.10
2019-04-16T05:53:51.758Z,40.20
2019-04-16T05:56:24.063Z,37.30
2019-04-16T05:58:52.315Z,36.30
2019-04-16T06:01:22.566Z,35.40
2019-04-16T06:03:53.304Z,35.30
2019-04-16T06:06:21.469Z,34.90
2019-04-16T06:08:50.109Z,33.70
2019-04-16T06:11:28.297Z,31.70
2019-04-16T06:13:59.613Z,30.30
2019-04-16T06:16:32.771Z,29.50
2019-04-16T06:19:11.431Z,29.10
2019-04-16T06:21:57.281Z,28.80
2019-04-16T06:24:27.587Z,28.40
2019-04-16T06:27:09.625Z,28.00
2019-04-16T06:29:51.797Z,27.70
2019-04-16T06:32:21.974Z,27.20
2019-04-16T06:34:57.924Z,27.20
2019-04-16T06:37:40.132Z,27.20
2019-04-16T06:40:10.398Z,27.20
2019-04-16T06:42:40.714Z,26.50
2019-04-16T06:45:14.038Z,26.20
2019-04-16T06:47:44.298Z,25.90
2019-04-16T06:50:14.620Z,25.50
2019-04-16T06:52:53.715Z,25.40
2019-04-16T06:55:34.911Z,25.10
2019-04-16T06:58:04.423Z,24.70
2019-04-16T07:00:40.482Z,24.70
2019-04-16T07:03:27.420Z,24.70
2019-04-16T07:06:04.093Z,25.30
2019-04-16T07:08:49.859Z,25.20
2019-04-16T07:11:27.710Z,25.30
2019-04-16T07:13:56.340Z,24.70
2019-04-16T07:16:27.895Z,24.90
2019-04-16T07:18:55.217Z,24.20
2019-04-16T07:21:23.819Z,23.90
2019-04-16T07:23:56.855Z,23.90
2019-04-16T07:26:22.881Z,24.30
2019-04-16T07:28:58.950Z,23.80
2019-04-16T07:31:39.760Z,24.10
2019-04-16T07:34:10.138Z,24.00
2019-04-16T07:36:56.647Z,23.90
2019-04-16T07:39:42.983Z,23.90
2019-04-16T07:42:26.429Z,24.10
2019-04-16T07:45:13.290Z,26.60
2019-04-16T07:47:59.761Z,25.60
2019-04-16T07:50:46.376Z,25.90
2019-04-16T07:53:32.802Z,24.70
2019-04-16T07:56:05.918Z,24.20
2019-04-16T07:58:34.697Z,22.50
2019-04-16T08:01:03.311Z,23.90
2019-04-16T08:03:31.904Z,24.00
2019-04-16T08:06:00.461Z,24.80
2019-04-16T08:08:29.271Z,23.70
2019-04-16T08:10:57.905Z,23.50
2019-04-16T08:13:33.361Z,23.70
2019-04-16T08:15:58.855Z,26.10
2019-04-16T08:18:27.468Z,28.90
2019-04-16T08:21:02.357Z,30.40
2019-04-16T08:28:27.947Z,34.80
2019-04-16T08:33:28.268Z,36.40
2019-04-16T08:35:55.175Z,37.10
2019-04-16T08:40:53.763Z,39.90
2019-04-16T08:43:22.343Z,38.80
2019-04-16T08:45:51.235Z,38.20
2019-04-16T08:48:19.814Z,38.90
2019-04-16T08:50:49.484Z,39.50
2019-04-16T08:53:18.120Z,40.30
2019-04-16T08:58:14.974Z,40.60
2019-04-16T09:00:46.650Z,40.90
2019-04-16T09:03:15.609Z,40.90
2019-04-16T09:05:44.197Z,41.30
2019-04-16T09:10:44.606Z,42.40
2019-04-16T09:13:17.663Z,41.60
2019-04-16T09:15:46.242Z,41.30
2019-04-16T09:18:19.485Z,40.60
2019-04-16T09:20:48.064Z,40.80
2019-04-16T09:23:16.669Z,41.80
2019-04-16T09:25:49.506Z,39.90
2019-04-16T09:28:25.827Z,41.00
2019-04-16T09:31:08.288Z,40.50
2019-04-16T09:33:41.689Z,40.40
2019-04-16T09:36:14.930Z,40.90
2019-04-16T09:38:46.271Z,40.60
2019-04-16T09:41:16.627Z,40.60
2019-04-16T09:43:57.134Z,40.50
2019-04-16T09:46:49.198Z,40.40
2019-04-16T09:48:56.753Z,40.50
2019-04-16T09:51:26.274Z,40.90
2019-04-16T09:53:54.938Z,40.30
2019-04-16T09:56:28.984Z,40.50
2019-04-16T09:59:01.202Z,40.30
2019-04-16T10:01:34.355Z,41.50
2019-04-16T10:06:31.934Z,42.00
2019-04-16T10:13:57.953Z,41.60
2019-04-16T10:16:28.186Z,42.40
2019-04-16T10:18:56.826Z,42.50
2019-04-16T10:21:28.334Z,41.40
2019-04-16T10:24:00.026Z,41.60
2019-04-16T10:26:28.624Z,41.90
2019-04-16T10:28:58.846Z,41.70
2019-04-16T10:31:27.584Z,41.30
2019-04-16T10:33:56.169Z,41.80
2019-04-16T10:36:24.759Z,42.90
2019-04-16T10:38:57.651Z,42.30
2019-04-16T10:41:27.908Z,42.50
2019-04-16T10:43:58.129Z,43.00
2019-04-16T10:46:43.425Z,43.80
2019-04-16T10:51:55.427Z,43.30
2019-04-16T10:54:28.631Z,43.50
2019-04-16T10:57:11.110Z,43.40
2019-04-16T10:59:50.039Z,44.20
2019-04-16T11:02:35.456Z,45.90
2019-04-16T11:05:21.507Z,43.30
2019-04-16T11:07:51.772Z,42.90
2019-04-16T11:10:21.036Z,43.00
2019-04-16T11:12:49.729Z,42.80
2019-04-16T11:15:19.992Z,42.80
2019-04-16T11:20:16.987Z,43.00
2019-04-16T11:22:45.671Z,43.30
2019-04-16T11:25:14.300Z,43.80
2019-04-16T11:27:42.914Z,43.80
2019-04-16T11:30:13.754Z,45.90
2019-04-16T11:32:42.414Z,50.20
2019-04-16T11:35:13.047Z,47.40
2019-04-16T11:37:43.978Z,45.50
2019-04-16T11:40:11.936Z,45.00
2019-04-16T11:42:40.758Z,44.60
2019-04-16T11:45:10.203Z,44.20
2019-04-16T11:47:38.769Z,44.40
2019-04-16T11:50:07.473Z,44.20
2019-04-16T11:52:36.303Z,43.60
2019-04-16T11:55:07.466Z,43.30
2019-04-16T11:57:36.112Z,43.30
2019-04-16T12:00:09.389Z,43.60
2019-04-16T12:02:51.706Z,44.00
2019-04-16T12:05:38.483Z,43.90
2019-04-16T12:10:41.370Z,44.10
2019-04-16T12:13:14.046Z,44.40
2019-04-16T12:15:59.598Z,41.50
2019-04-16T12:21:04.118Z,45.00
2019-04-16T12:26:25.655Z,44.60
2019-04-16T12:28:58.570Z,45.30
2019-04-16T12:31:46.808Z,45.80
2019-04-16T12:34:19.815Z,46.00
2019-04-16T12:37:06.593Z,46.40
2019-04-16T12:39:46.327Z,46.90
2019-04-16T12:42:25.238Z,48.20
2019-04-16T12:44:55.459Z,48.90
2019-04-16T12:47:37.505Z,48.30
2019-04-16T12:50:08.903Z,48.00
2019-04-16T12:52:41.647Z,49.50
2019-04-16T12:55:12.631Z,49.80
2019-04-16T12:57:47.124Z,50.40
2019-04-16T13:00:31.407Z,50.60
2019-04-16T13:03:01.637Z,51.20
2019-04-16T13:05:34.554Z,51.50
2019-04-16T13:08:17.007Z,52.20
2019-04-16T13:10:53.526Z,52.60
2019-04-16T13:13:40.029Z,53.20
2019-04-16T13:16:19.174Z,50.40
2019-04-16T13:19:07.661Z,51.20
2019-04-16T13:21:49.983Z,51.00
2019-04-16T13:24:36.420Z,51.70
2019-04-16T13:27:15.401Z,51.20
2019-04-16T13:29:44.138Z,50.90
2019-04-16T13:32:12.778Z,50.50
2019-04-16T13:34:41.367Z,52.10
2019-04-16T13:37:09.937Z,50.90
2019-04-16T13:39:42.635Z,48.00
2019-04-16T13:42:11.201Z,48.40
2019-04-16T13:44:41.459Z,49.30
2019-04-16T13:47:10.166Z,46.70
2019-04-16T13:49:49.178Z,45.90
2019-04-16T13:52:20.604Z,47.10
2019-04-16T13:55:10.134Z,46.10
2019-04-16T13:57:45.830Z,46.50
2019-04-16T14:00:33.650Z,46.50
2019-04-16T14:03:06.305Z,46.40
2019-04-16T14:05:38.410Z,46.70
2019-04-16T14:08:06.108Z,47.00
2019-04-16T14:10:34.722Z,46.90
2019-04-16T14:13:03.497Z,47.50
2019-04-16T14:15:38.925Z,47.80
2019-04-16T14:18:04.429Z,47.50
2019-04-16T14:20:33.022Z,47.50
2019-04-16T14:23:01.521Z,47.70
2019-04-16T14:25:30.117Z,47.60
2019-04-16T14:28:02.002Z,47.40
2019-04-16T14:30:30.665Z,47.00
2019-04-16T14:32:59.262Z,46.70
2019-04-16T14:35:33.313Z,47.40
2019-04-16T14:37:59.776Z,47.40
2019-04-16T14:40:28.953Z,47.00
2019-04-16T14:42:58.271Z,47.30
2019-04-16T14:45:28.942Z,47.60
2019-04-16T14:47:57.768Z,47.60
2019-04-16T14:50:26.422Z,48.20
2019-04-16T14:52:55.295Z,47.70
2019-04-16T14:55:34.471Z,47.00
2019-04-16T14:58:16.812Z,47.50
2019-04-16T15:01:04.852Z,47.80
2019-04-16T15:03:50.313Z,48.00
2019-04-16T15:06:23.111Z,48.00
2019-04-16T15:09:02.183Z,48.10
2019-04-16T15:11:41.397Z,48.40
2019-04-16T15:14:14.300Z,50.40
2019-04-16T15:16:44.505Z,50.80
2019-04-16T15:19:31.165Z,51.50
2019-04-16T15:22:01.574Z,52.50
2019-04-16T15:24:34.406Z,53.30
2019-04-16T15:27:19.457Z,53.80
2019-04-16T15:30:07.678Z,54.10
2019-04-16T15:32:40.350Z,54.50
2019-04-16T15:35:14.157Z,55.60
2019-04-16T15:37:45.192Z,56.10
2019-04-16T15:40:14.703Z,56.70
2019-04-16T15:42:50.927Z,57.20
2019-04-16T15:45:29.955Z,57.50
2019-04-16T15:50:55.378Z,58.60
2019-04-16T15:53:31.378Z,58.80
2019-04-16T15:56:07.635Z,59.20
2019-04-16T15:58:37.837Z,59.30
2019-04-16T16:04:03.505Z,59.70
2019-04-16T16:06:37.065Z,61.40
2019-04-16T16:09:14.336Z,61.60
2019-04-16T16:11:44.642Z,62.30
2019-04-16T16:14:13.387Z,63.30
2019-04-16T16:16:42.435Z,64.00
2019-04-16T16:19:12.113Z,64.80
2019-04-16T16:21:40.758Z,65.50
2019-04-16T16:24:09.335Z,66.40
2019-04-16T16:26:38.005Z,66.80
2019-04-16T16:29:06.583Z,68.80
2019-04-16T16:31:35.709Z,69.30
2019-04-16T16:34:08.285Z,70.00
2019-04-16T16:36:36.524Z,70.50
2019-04-16T16:39:07.282Z,71.50
2019-04-16T16:41:35.877Z,71.40
2019-04-16T16:44:04.816Z,71.90
2019-04-16T16:46:37.764Z,73.20
2019-04-16T16:49:06.430Z,73.50
2019-04-16T16:51:35.013Z,75.50
2019-04-16T16:54:05.839Z,79.30
2019-04-16T16:56:52.480Z,80.00
2019-04-16T16:59:39.104Z,90.10
2019-04-16T17:02:10.457Z,91.60
2019-04-16T17:04:40.758Z,91.90
2019-04-16T17:07:09.601Z,92.40
2019-04-16T17:09:38.202Z,92.50
2019-04-16T17:12:06.778Z,92.70
2019-04-16T17:14:37.515Z,91.20
2019-04-16T17:17:13.853Z,91.60
2019-04-16T17:19:36.134Z,91.30
2019-04-16T17:22:04.851Z,91.70
2019-04-16T17:24:33.463Z,92.00
2019-04-16T17:27:02.169Z,91.00
2019-04-16T17:29:31.107Z,91.20
2019-04-16T17:31:59.676Z,90.70
2019-04-16T17:34:28.362Z,91.50
2019-04-16T17:36:56.934Z,91.70
2019-04-16T17:39:27.324Z,92.10
2019-04-16T17:42:06.391Z,92.30
2019-04-16T17:44:53.227Z,99.90
2019-04-16T17:47:39.697Z,99.90
2019-04-16T17:50:12.965Z,99.90
2019-04-16T17:52:43.107Z,99.90
2019-04-16T17:55:13.388Z,99.90
2019-04-16T17:57:43.631Z,98.20
2019-04-16T18:00:30.137Z,98.40
2019-04-16T18:03:15.085Z,98.90
2019-04-16T18:05:45.231Z,97.70
2019-04-16T18:08:33.866Z,97.00
2019-04-16T18:11:13.133Z,98.20
2019-04-16T18:13:55.309Z,97.20
2019-04-16T18:16:31.041Z,97.10
2019-04-16T18:19:06.917Z,96.70
2019-04-16T18:21:37.099Z,97.30
2019-04-16T18:24:09.938Z,97.60
2019-04-16T18:26:52.240Z,97.00
2019-04-16T18:29:22.426Z,96.90
2019-04-16T18:32:05.013Z,97.20
2019-04-16T18:34:35.227Z,97.10
2019-04-16T18:37:08.606Z,96.70
2019-04-16T18:39:38.838Z,96.60
2019-04-16T18:42:09.190Z,97.20
2019-04-16T18:44:42.130Z,97.70
2019-04-16T18:47:24.697Z,98.30
2019-04-16T18:49:54.962Z,98.50
2019-04-16T18:52:23.552Z,99.10
2019-04-16T18:54:52.368Z,99.30
2019-04-16T18:57:21.018Z,99.70
2019-04-16T18:59:49.578Z,99.80
2019-04-16T19:02:18.294Z,99.90
2019-04-16T19:04:50.666Z,99.90
2019-04-16T19:07:17.170Z,99.90
2019-04-16T19:09:45.757Z,99.90
2019-04-16T19:12:14.435Z,99.90
2019-04-16T19:14:43.005Z,99.90
2019-04-16T19:17:11.578Z,99.90
2019-04-16T19:19:44.578Z,99.90
2019-04-16T19:22:10.418Z,99.90
2019-04-16T19:24:39.017Z,99.90
2019-04-16T19:29:35.811Z,99.90
2019-04-16T19:32:04.455Z,99.90
2019-04-16T19:34:33.058Z,99.90
2019-04-16T19:37:01.639Z,99.90
2019-04-16T19:39:30.240Z,99.90
2019-04-16T19:41:58.818Z,99.90
2019-04-16T19:44:27.415Z,99.90
2019-04-16T19:46:56.013Z,99.90
2019-04-16T19:51:52.853Z,99.90
2019-04-16T19:54:21.425Z,99.90
2019-04-16T19:56:51.396Z,99.90
2019-04-16T19:59:20.377Z,99.90
2019-04-16T20:01:50.518Z,99.90
2019-04-16T20:04:19.222Z,99.90
2019-04-16T20:06:47.825Z,99.90
2019-04-16T20:14:14.559Z,99.90
2019-04-16T20:16:43.158Z,99.90
2019-04-16T20:19:11.732Z,99.90
2019-04-16T20:21:40.510Z,99.90
2019-04-16T20:24:09.074Z,99.90
2019-04-16T20:26:37.921Z,99.90
2019-04-16T20:29:06.497Z,99.90
2019-04-16T20:31:35.097Z,99.90
2019-04-16T20:34:04.008Z,99.90
2019-04-16T20:36:32.608Z,99.90
2019-04-16T20:39:01.214Z,99.90
2019-04-16T20:41:29.814Z,99.90
2019-04-16T20:43:58.392Z,99.90
2019-04-16T20:46:26.966Z,99.90
2019-04-16T20:49:07.610Z,99.90
2019-04-16T20:51:26.698Z,99.90
2019-04-16T20:54:15.261Z,99.90
2019-04-16T20:56:43.832Z,99.90
2019-04-16T20:59:12.571Z,99.90
2019-04-16T21:01:41.145Z,99.90
2019-04-16T21:04:09.675Z,99.90
2019-04-16T21:06:41.862Z,99.90
2019-04-16T21:11:40.491Z,99.90
2019-04-16T21:14:07.241Z,99.90
2019-04-16T21:16:35.845Z,99.90
2019-04-16T21:24:06.768Z,99.90
2019-04-16T21:26:31.270Z,99.90
2019-04-16T21:31:47.609Z,99.90
2019-04-16T21:36:59.712Z,99.90
2019-04-16T21:39:32.921Z,99.90
2019-04-16T21:42:03.059Z,99.90
2019-04-16T21:44:31.903Z,99.90
2019-04-16T21:47:00.522Z,99.90
2019-04-16T21:49:38.350Z,99.90
2019-04-16T21:52:08.597Z,99.90
2019-04-16T21:59:36.114Z,99.90
2019-04-16T22:02:24.959Z,99.90
2019-04-16T22:04:53.559Z,99.90
2019-04-16T22:07:24.723Z,99.90
2019-04-16T22:09:52.593Z,99.90
2019-04-16T22:12:21.174Z,99.90
2019-04-16T22:14:50.985Z,99.90
2019-04-16T22:17:20.050Z,99.90
2019-04-16T22:19:54.321Z,99.90
2019-04-16T22:22:18.805Z,99.90
2019-04-16T22:24:47.415Z,99.90
2019-04-16T22:27:15.986Z,99.90
2019-04-16T22:32:14.573Z,99.90
2019-04-16T22:34:43.190Z,99.90
2019-04-16T22:37:11.770Z,99.90
2019-04-16T22:39:42.033Z,99.90
2019-04-16T22:42:29.795Z,99.90
2019-04-16T22:45:02.393Z,99.90
2019-04-16T22:47:32.550Z,99.90
2019-04-16T22:54:59.316Z,99.90
2019-04-16T22:57:30.974Z,99.90
2019-04-16T22:59:58.349Z,99.90
2019-04-16T23:02:28.551Z,99.90
2019-04-16T23:04:58.310Z,99.90
2019-04-16T23:09:55.637Z,99.90
2019-04-16T23:14:54.145Z,99.90
2019-04-16T23:17:24.371Z,99.90
2019-04-16T23:19:54.592Z,99.90
2019-04-16T23:22:23.298Z,99.90
2019-04-16T23:24:55.454Z,99.90
2019-04-16T23:27:22.060Z,99.90
2019-04-16T23:29:50.584Z,99.90
2019-04-16T23:32:19.153Z,99.90
2019-04-16T23:34:47.822Z,99.90
2019-04-16T23:37:16.391Z,99.90
2019-04-16T23:42:13.229Z,99.90
2019-04-16T23:44:43.467Z,99.90
2019-04-16T23:49:43.512Z,99.90
2019-04-16T23:52:22.850Z,99.90
2019-04-16T23:54:55.782Z,99.90
2019-04-16T23:57:25.996Z,99.90
